Time;durP1;ratioP1;P1;durP2;ratioP2;P2;SDS_P1;SDS_P2;PMS_P1;PMS_P2;Temp;Humidity;BMP_temperature;BMP_pressure;BME280_temperature;BME280_humidity;BME280_pressure;Samples;Min_cycle;Max_cycle;Signal;HPM_P1;HPM_P2
2023/02/08 00:00:49;;;;;;;20.13;15.37;;;3.20;27.00;;;;;;5039687;28;20723;-86
2023/02/08 00:03:15;;;;;;;20.10;14.77;;;3.30;27.30;;;;;;5056076;28;20177;-85
2023/02/08 00:05:41;;;;;;;20.00;14.43;;;3.20;27.60;;;;;;5047944;28;20180;-85
2023/02/08 00:08:10;;;;;;;21.17;16.97;;;3.10;29.30;;;;;;5056071;28;20162;-83
2023/02/08 00:10:36;;;;;;;20.30;15.23;;;3.20;32.60;;;;;;5052400;28;20174;-82
2023/02/08 00:13:02;;;;;;;21.77;15.43;;;3.20;31.70;;;;;;5044676;28;20211;-85
2023/02/08 00:15:40;;;;;;;21.80;17.30;;;3.40;28.80;;;;;;5038351;28;20173;-85
2023/02/08 00:18:08;;;;;;;20.37;18.17;;;3.10;29.40;;;;;;5045012;28;20167;-82
2023/02/08 00:20:33;;;;;;;21.13;15.77;;;3.10;31.80;;;;;;5057230;28;20170;-83
2023/02/08 00:22:59;;;;;;;20.50;14.30;;;3.10;34.10;;;;;;5042485;28;20181;-87
2023/02/08 00:25:33;;;;;;;19.43;14.50;;;3.00;36.60;;;;;;5054108;28;20181;-82
2023/02/08 00:27:59;;;;;;;21.90;14.80;;;2.80;39.20;;;;;;5056195;28;20190;-86
2023/02/08 00:30:25;;;;;;;23.67;14.70;;;2.70;40.30;;;;;;5046147;28;20173;-82
2023/02/08 00:32:54;;;;;;;19.17;15.20;;;2.80;42.70;;;;;;5037168;28;20201;-84
2023/02/08 00:35:20;;;;;;;19.00;14.40;;;3.10;41.50;;;;;;5034667;28;20197;-85
2023/02/08 00:37:46;;;;;;;22.13;16.30;;;3.00;37.40;;;;;;5033805;28;20174;-83
2023/02/08 00:40:11;;;;;;;21.07;15.57;;;3.00;36.90;;;;;;5033543;28;20165;-81
2023/02/08 00:42:37;;;;;;;21.03;15.77;;;2.90;38.40;;;;;;5034364;28;20178;-81
2023/02/08 00:45:03;;;;;;;20.20;14.67;;;2.70;38.20;;;;;;5033700;28;20265;-84
2023/02/08 00:47:29;;;;;;;20.53;14.83;;;2.70;39.80;;;;;;5034105;28;20177;-83
2023/02/08 00:49:55;;;;;;;23.37;14.80;;;2.50;41.60;;;;;;5037519;28;20233;-85
2023/02/08 00:52:21;;;;;;;20.30;14.30;;;2.50;43.00;;;;;;5035506;28;20224;-81
2023/02/08 00:54:47;;;;;;;19.03;14.57;;;2.60;43.40;;;;;;5046760;28;20245;-81
2023/02/08 00:57:13;;;;;;;22.73;14.90;;;2.40;44.20;;;;;;5055600;28;20157;-80
2023/02/08 00:59:39;;;;;;;22.17;15.03;;;2.50;43.90;;;;;;5050680;28;20158;-83
2023/02/08 01:02:05;;;;;;;21.47;15.13;;;2.70;41.30;;;;;;5055494;28;20215;-82
2023/02/08 01:04:33;;;;;;;21.27;14.47;;;2.50;38.90;;;;;;5054783;28;20200;-81
2023/02/08 01:07:01;;;;;;;24.60;14.57;;;2.40;41.80;;;;;;5035997;28;20586;-82
2023/02/08 01:09:30;;;;;;;19.53;15.60;;;2.40;43.00;;;;;;5034945;28;20165;-83
2023/02/08 01:12:15;;;;;;;22.07;15.10;;;2.50;44.00;;;;;;5033624;28;20202;-82
2023/02/08 01:14:44;;;;;;;20.77;15.03;;;2.50;44.10;;;;;;5032729;28;20171;-83
2023/02/08 01:17:13;;;;;;;25.07;14.90;;;2.60;44.70;;;;;;5032857;28;20174;-82
2023/02/08 01:19:38;;;;;;;21.20;15.10;;;2.80;44.00;;;;;;5034029;28;20853;-82
2023/02/08 01:22:04;;;;;;;22.47;15.17;;;2.80;40.30;;;;;;5033878;28;20240;-81
2023/02/08 01:24:30;;;;;;;19.97;14.87;;;2.90;37.20;;;;;;5033559;28;20265;-81
2023/02/08 01:26:55;;;;;;;20.57;15.63;;;2.90;37.50;;;;;;5031541;28;20671;-81
2023/02/08 01:29:21;;;;;;;23.63;16.90;;;3.00;36.60;;;;;;5032131;28;20507;-82
2023/02/08 01:31:47;;;;;;;23.70;16.83;;;3.10;35.20;;;;;;5031518;28;20237;-81
2023/02/08 01:34:12;;;;;;;20.53;15.40;;;3.00;33.80;;;;;;5033436;28;20169;-83
2023/02/08 01:36:39;;;;;;;22.97;16.73;;;2.90;32.90;;;;;;5052950;28;20174;-80
2023/02/08 01:39:06;;;;;;;21.97;15.47;;;3.00;34.20;;;;;;5056707;28;20170;-82
2023/02/08 01:41:48;;;;;;;25.20;17.73;;;2.90;34.30;;;;;;5050707;28;20176;-81
2023/02/08 01:47:37;;;;;;;22.13;15.60;;;2.70;39.70;;;;;;5034395;28;20169;-85
2023/02/08 01:50:03;;;;;;;20.63;15.93;;;2.60;39.50;;;;;;5033712;28;20630;-83
2023/02/08 01:52:29;;;;;;;23.43;16.33;;;2.60;41.80;;;;;;5032594;28;20232;-82
2023/02/08 01:55:14;;;;;;;21.07;15.83;;;2.60;42.70;;;;;;5032775;28;20173;-84
2023/02/08 01:57:40;;;;;;;20.63;15.73;;;2.90;43.20;;;;;;5032863;28;20540;-84
2023/02/08 02:00:11;;;;;;;21.00;16.50;;;3.20;36.90;;;;;;5033875;28;20866;-83
2023/02/08 02:02:38;;;;;;;21.37;16.50;;;3.30;30.20;;;;;;5033098;28;20188;-82
2023/02/08 02:05:05;;;;;;;20.13;15.90;;;3.30;27.50;;;;;;5035561;28;20174;-86
2023/02/08 02:07:31;;;;;;;21.13;16.70;;;3.30;26.50;;;;;;5037920;28;20184;-83
2023/02/08 02:10:13;;;;;;;23.33;16.70;;;3.30;24.20;;;;;;5037122;28;20181;-83
2023/02/08 02:12:40;;;;;;;25.20;17.37;;;3.40;21.80;;;;;;5036123;28;20205;-83
2023/02/08 02:15:07;;;;;;;23.53;16.97;;;3.30;20.10;;;;;;5036147;28;20232;-83
2023/02/08 02:17:34;;;;;;;24.23;17.27;;;3.30;20.40;;;;;;5043796;28;20193;-83
2023/02/08 02:20:15;;;;;;;25.37;16.63;;;3.40;22.10;;;;;;5055914;28;20215;-82
2023/02/08 02:23:22;;;;;;;24.83;17.10;;;3.20;23.90;;;;;;5042680;28;20307;-84
2023/02/08 02:26:10;;;;;;;21.50;16.70;;;3.20;25.00;;;;;;5017496;28;20182;-86
2023/02/08 02:29:06;;;;;;;23.50;16.40;;;3.30;24.70;;;;;;5036356;28;20537;-85
2023/02/08 02:31:58;;;;;;;24.40;17.60;;;3.10;26.70;;;;;;5040817;28;20212;-82
2023/02/08 02:34:56;;;;;;;22.93;16.73;;;3.10;29.80;;;;;;5054211;28;20190;-81
2023/02/08 02:37:36;;;;;;;24.03;17.10;;;3.00;32.10;;;;;;5060261;28;20181;-83
2023/02/08 02:40:33;;;;;;;22.57;16.10;;;3.10;33.50;;;;;;5050826;28;20169;-86
2023/02/08 02:43:43;;;;;;;27.20;17.70;;;3.10;31.90;;;;;;5036925;28;20162;-85
2023/02/08 02:46:39;;;;;;;23.83;16.17;;;3.10;33.40;;;;;;5037913;28;20255;-82
2023/02/08 02:49:22;;;;;;;25.07;17.13;;;3.00;34.00;;;;;;5037580;28;20202;-85
2023/02/08 02:52:10;;;;;;;26.40;16.73;;;3.10;34.70;;;;;;5057478;28;20201;-82
2023/02/08 02:55:07;;;;;;;21.80;17.23;;;3.10;32.50;;;;;;5050978;28;20182;-81
2023/02/08 02:57:36;;;;;;;25.50;18.70;;;3.20;29.90;;;;;;5025306;28;20634;-82
2023/02/08 03:00:15;;;;;;;25.37;18.77;;;3.20;28.40;;;;;;5035229;28;20178;-82
2023/02/08 03:02:41;;;;;;;20.97;17.27;;;2.90;32.10;;;;;;5035831;28;20277;-83
2023/02/08 03:05:10;;;;;;;22.10;16.87;;;2.70;37.20;;;;;;5034777;28;20574;-82
2023/02/08 03:08:05;;;;;;;24.07;17.73;;;2.70;40.00;;;;;;5034836;28;20178;-83
2023/02/08 03:10:51;;;;;;;23.97;17.80;;;2.80;41.00;;;;;;5035297;28;20178;-82
2023/02/08 03:13:44;;;;;;;23.03;17.60;;;2.90;39.80;;;;;;5015538;28;20648;-83
2023/02/08 03:16:23;;;;;;;23.57;17.17;;;2.80;39.90;;;;;;5033290;28;20184;-83
2023/02/08 03:19:13;;;;;;;25.50;18.27;;;3.00;40.60;;;;;;5035071;28;20177;-83
2023/02/08 03:21:42;;;;;;;23.33;17.27;;;3.00;38.20;;;;;;5033530;28;20180;-85
2023/02/08 03:24:29;;;;;;;22.53;17.27;;;3.00;38.00;;;;;;5037634;28;20185;-85
2023/02/08 03:27:11;;;;;;;20.83;16.20;;;3.00;37.30;;;;;;5043813;28;20179;-86
2023/02/08 03:29:43;;;;;;;23.40;16.63;;;3.00;36.70;;;;;;5036333;28;20162;-86
2023/02/08 03:32:31;;;;;;;21.13;16.30;;;3.10;37.10;;;;;;5035576;28;20232;-86
2023/02/08 03:35:23;;;;;;;20.03;16.33;;;3.10;35.90;;;;;;5035850;28;20223;-84
2023/02/08 03:38:04;;;;;;;23.83;17.33;;;3.10;34.60;;;;;;5036051;28;20275;-84
2023/02/08 03:40:37;;;;;;;24.23;17.00;;;3.10;31.90;;;;;;5035068;28;20177;-82
2023/02/08 03:43:13;;;;;;;23.40;17.37;;;3.00;31.30;;;;;;5035160;28;20166;-82
2023/02/08 03:45:53;;;;;;;24.53;17.17;;;2.90;30.90;;;;;;5034103;28;20165;-83
2023/02/08 03:48:20;;;;;;;25.63;18.20;;;2.80;33.80;;;;;;5033823;28;20173;-85
2023/02/08 03:50:50;;;;;;;23.60;17.83;;;2.90;35.10;;;;;;5034029;28;20170;-83
2023/02/08 03:53:19;;;;;;;25.73;17.60;;;2.90;32.30;;;;;;5033600;28;20228;-83
2023/02/08 03:55:48;;;;;;;22.67;16.77;;;2.90;33.50;;;;;;5033706;28;20268;-85
2023/02/08 03:58:25;;;;;;;24.23;17.77;;;2.80;34.60;;;;;;5035185;28;20536;-82
2023/02/08 04:00:57;;;;;;;23.13;18.30;;;2.70;35.30;;;;;;5034691;28;20230;-84
2023/02/08 04:03:25;;;;;;;23.83;17.00;;;2.70;36.20;;;;;;5034345;28;20173;-84
2023/02/08 04:05:51;;;;;;;24.03;17.57;;;2.60;37.50;;;;;;5034319;28;20174;-84
2023/02/08 04:08:17;;;;;;;23.20;18.47;;;2.60;35.40;;;;;;5034135;28;20188;-84
2023/02/08 04:10:45;;;;;;;24.33;19.00;;;2.70;30.30;;;;;;5033632;28;20257;-84
2023/02/08 04:13:11;;;;;;;27.73;19.53;;;2.60;29.70;;;;;;5035005;28;20233;-85
2023/02/08 04:15:37;;;;;;;23.63;17.77;;;2.60;28.00;;;;;;5033331;28;20197;-85
2023/02/08 04:18:02;;;;;;;22.10;17.53;;;2.60;28.20;;;;;;5034311;28;20208;-84
2023/02/08 04:20:28;;;;;;;26.23;16.77;;;2.50;27.80;;;;;;5034420;28;20212;-85
2023/02/08 04:22:54;;;;;;;21.73;18.07;;;2.50;29.50;;;;;;5033553;28;20186;-84
2023/02/08 04:25:19;;;;;;;27.00;18.23;;;2.40;29.40;;;;;;5034711;28;20173;-85
2023/02/08 04:27:45;;;;;;;28.57;18.47;;;2.40;32.20;;;;;;5034151;28;20253;-83
2023/02/08 04:30:11;;;;;;;25.93;18.53;;;2.40;32.20;;;;;;5050596;28;20170;-82
2023/02/08 04:32:37;;;;;;;24.63;16.90;;;2.30;33.50;;;;;;5045573;28;20216;-82
2023/02/08 04:35:05;;;;;;;23.07;17.07;;;2.30;38.40;;;;;;5036142;28;20174;-85
2023/02/08 04:37:34;;;;;;;28.53;17.70;;;2.30;40.20;;;;;;5036570;28;20173;-82
2023/02/08 04:39:59;;;;;;;26.87;17.70;;;2.30;41.60;;;;;;5036330;28;20177;-82
2023/02/08 04:42:25;;;;;;;21.40;17.53;;;2.30;42.90;;;;;;5040868;28;20166;-84
2023/02/08 04:44:52;;;;;;;25.27;18.00;;;2.30;42.90;;;;;;5051149;28;20162;-81
2023/02/08 04:47:18;;;;;;;25.00;18.03;;;2.50;43.10;;;;;;5052736;28;20177;-84
2023/02/08 04:49:46;;;;;;;26.30;17.90;;;2.40;43.20;;;;;;5039470;28;20550;-83
2023/02/08 04:52:30;;;;;;;24.03;16.67;;;2.50;43.50;;;;;;5034575;28;20217;-84
2023/02/08 04:54:56;;;;;;;21.50;16.93;;;2.50;41.20;;;;;;5033628;28;20181;-84
2023/02/08 04:57:21;;;;;;;22.73;17.70;;;2.50;41.30;;;;;;5057630;28;20227;-82
2023/02/08 04:59:47;;;;;;;22.60;17.77;;;2.60;37.70;;;;;;5047125;28;20627;-82
2023/02/08 05:02:13;;;;;;;22.47;16.90;;;2.60;33.00;;;;;;5038814;28;20197;-84
2023/02/08 05:04:38;;;;;;;24.37;18.37;;;2.60;31.30;;;;;;5033598;28;20193;-84
2023/02/08 05:07:04;;;;;;;24.30;17.63;;;2.70;30.40;;;;;;5033756;28;20620;-83
2023/02/08 05:09:30;;;;;;;25.07;16.97;;;2.60;30.30;;;;;;5033960;28;20177;-85
2023/02/08 05:11:55;;;;;;;25.27;17.37;;;2.60;31.00;;;;;;5047145;28;20189;-82
2023/02/08 05:14:21;;;;;;;24.07;18.00;;;2.60;32.00;;;;;;5054503;28;20227;-81
2023/02/08 05:16:47;;;;;;;22.07;17.27;;;2.60;32.60;;;;;;5044422;28;20174;-83
2023/02/08 05:22:35;;;;;;;28.17;19.27;;;2.60;35.80;;;;;;5052124;28;20180;-82
2023/02/08 05:25:01;;;;;;;25.77;18.23;;;2.50;33.80;;;;;;5055446;28;20169;-82
2023/02/08 05:27:27;;;;;;;24.37;17.77;;;2.50;34.60;;;;;;5051813;28;20633;-83
2023/02/08 05:29:56;;;;;;;24.73;18.30;;;2.50;35.10;;;;;;5035120;28;20188;-83
2023/02/08 05:32:23;;;;;;;25.07;18.90;;;2.50;35.60;;;;;;5035011;28;20684;-84
2023/02/08 05:34:50;;;;;;;25.77;20.10;;;2.50;37.50;;;;;;5034075;28;20634;-86
2023/02/08 05:37:19;;;;;;;24.23;19.37;;;2.50;40.20;;;;;;5034728;28;20170;-84
2023/02/08 05:39:44;;;;;;;33.27;20.00;;;2.40;42.90;;;;;;5037544;28;20239;-82
2023/02/08 05:42:10;;;;;;;26.07;19.90;;;2.30;43.90;;;;;;5040183;28;20204;-85
2023/02/08 05:44:36;;;;;;;24.73;18.57;;;2.50;45.50;;;;;;5040335;28;20172;-83
2023/02/08 05:47:02;;;;;;;26.33;18.37;;;2.40;45.00;;;;;;5041289;28;20602;-82
2023/02/08 05:49:28;;;;;;;27.10;19.63;;;2.50;45.10;;;;;;5043170;28;20157;-84
2023/02/08 05:51:54;;;;;;;30.17;20.53;;;2.50;44.00;;;;;;5043059;28;20681;-83
2023/02/08 05:54:20;;;;;;;27.13;19.57;;;2.60;41.30;;;;;;5042171;28;20276;-83
2023/02/08 05:56:49;;;;;;;26.73;18.97;;;2.60;39.00;;;;;;5043129;28;20169;-84
2023/02/08 05:59:14;;;;;;;25.40;18.63;;;2.50;36.30;;;;;;5057533;28;20169;-86
2023/02/08 06:01:40;;;;;;;24.07;18.37;;;2.40;38.30;;;;;;5042020;28;20652;-85
2023/02/08 06:04:05;;;;;;;26.83;19.70;;;2.10;42.20;;;;;;5043422;28;20173;-85
2023/02/08 06:06:31;;;;;;;25.37;18.73;;;2.10;47.20;;;;;;5042526;28;20251;-87
2023/02/08 06:08:57;;;;;;;26.87;18.90;;;2.10;49.10;;;;;;5042710;28;20264;-84
2023/02/08 06:11:22;;;;;;;31.37;20.13;;;2.20;50.30;;;;;;5041049;28;20638;-85
2023/02/08 06:13:48;;;;;;;23.57;18.77;;;2.20;50.30;;;;;;5042282;28;20663;-83
2023/02/08 06:16:14;;;;;;;26.43;18.30;;;2.30;50.40;;;;;;5042358;28;20208;-85
2023/02/08 06:18:40;;;;;;;25.50;17.97;;;2.30;47.60;;;;;;5043137;28;20177;-85
2023/02/08 06:21:06;;;;;;;23.57;17.93;;;2.30;48.50;;;;;;5040639;28;20188;-83
2023/02/08 06:23:32;;;;;;;22.83;17.60;;;2.30;47.10;;;;;;5041792;28;20181;-82
2023/02/08 06:25:59;;;;;;;23.60;17.70;;;2.40;46.70;;;;;;5040657;28;20173;-86
2023/02/08 06:28:26;;;;;;;27.17;18.23;;;2.50;46.30;;;;;;5042468;28;20233;-86
2023/02/08 06:30:51;;;;;;;28.90;17.90;;;2.40;42.90;;;;;;5043413;28;20228;-84
2023/02/08 06:33:19;;;;;;;24.03;16.67;;;2.40;40.50;;;;;;5042846;28;20221;-83
2023/02/08 06:35:46;;;;;;;25.33;18.50;;;2.40;39.90;;;;;;5041944;28;20208;-84
2023/02/08 06:38:12;;;;;;;26.87;19.30;;;2.40;38.70;;;;;;5059079;28;20208;-84
2023/02/08 06:40:46;;;;;;;24.03;18.33;;;2.40;37.80;;;;;;5043300;28;20174;-85
2023/02/08 06:43:16;;;;;;;26.63;19.23;;;2.40;38.00;;;;;;5044554;28;20170;-84
2023/02/08 06:45:45;;;;;;;23.77;18.37;;;2.40;39.40;;;;;;5049074;28;20551;-84
2023/02/08 06:48:11;;;;;;;24.57;17.83;;;2.40;41.40;;;;;;5043284;28;20626;-85
2023/02/08 06:50:37;;;;;;;26.00;17.20;;;2.50;41.80;;;;;;5043756;28;20220;-85
2023/02/08 06:53:03;;;;;;;25.10;17.90;;;2.30;42.10;;;;;;5058284;28;20221;-83
2023/02/08 06:55:30;;;;;;;23.67;18.53;;;2.30;44.20;;;;;;5053098;28;20184;-84
2023/02/08 06:57:56;;;;;;;23.80;18.60;;;2.30;46.10;;;;;;5049150;28;20172;-84
2023/02/08 07:00:23;;;;;;;24.33;17.43;;;2.30;47.40;;;;;;5040032;28;20181;-87
2023/02/08 07:02:48;;;;;;;25.13;17.70;;;2.20;50.00;;;;;;5039656;28;20608;-83
2023/02/08 07:05:14;;;;;;;23.73;18.27;;;2.30;52.70;;;;;;5038065;28;20264;-88
2023/02/08 07:07:41;;;;;;;25.73;18.57;;;2.40;53.70;;;;;;5050032;28;20169;-88
2023/02/08 07:10:06;;;;;;;25.43;18.30;;;2.40;54.00;;;;;;5053855;28;20193;-85
2023/02/08 07:12:34;;;;;;;24.43;18.97;;;2.50;54.20;;;;;;5053335;28;20280;-87
2023/02/08 07:15:00;;;;;;;27.70;19.63;;;2.40;53.80;;;;;;5057602;28;20174;-83
2023/02/08 07:17:26;;;;;;;29.97;20.27;;;2.40;54.80;;;;;;5052361;28;20214;-84
2023/02/08 07:20:06;;;;;;;26.67;18.47;;;2.40;56.50;;;;;;5041814;28;20205;-83
2023/02/08 07:22:33;;;;;;;33.20;20.83;;;2.60;57.60;;;;;;5036559;28;20220;-88
2023/02/08 07:25:00;;;;;;;28.43;18.97;;;2.70;56.60;;;;;;5035638;28;20165;-86
2023/02/08 07:27:26;;;;;;;25.90;19.00;;;2.70;55.10;;;;;;5036953;28;20208;-86
2023/02/08 07:29:52;;;;;;;32.63;18.67;;;2.80;54.60;;;;;;5043214;28;20165;-85
2023/02/08 07:32:18;;;;;;;27.30;19.40;;;2.90;54.70;;;;;;5058588;28;20216;-83
2023/02/08 07:34:44;;;;;;;27.00;18.70;;;3.00;53.60;;;;;;5041112;28;20189;-84
2023/02/08 07:37:13;;;;;;;25.53;19.00;;;3.00;52.40;;;;;;5037998;28;20177;-86
2023/02/08 07:39:38;;;;;;;29.70;18.00;;;3.00;51.40;;;;;;5035508;28;20184;-84
2023/02/08 07:42:05;;;;;;;35.13;19.60;;;3.10;51.20;;;;;;5042791;28;20175;-86
2023/02/08 07:44:33;;;;;;;29.07;20.10;;;3.20;42.60;;;;;;5038354;28;20249;-85
2023/02/08 07:47:00;;;;;;;28.43;20.07;;;3.20;33.70;;;;;;5034885;28;20237;-87
2023/02/08 07:49:26;;;;;;;34.87;19.70;;;3.10;30.70;;;;;;5030540;28;20182;-83
2023/02/08 07:51:52;;;;;;;30.70;19.37;;;3.00;28.30;;;;;;5022915;28;20217;-83
2023/02/08 07:54:17;;;;;;;34.60;18.73;;;3.00;28.40;;;;;;5025032;28;20249;-83
2023/02/08 07:56:43;;;;;;;30.27;18.77;;;3.00;29.20;;;;;;5020528;28;20647;-83
2023/02/08 07:59:09;;;;;;;26.00;16.53;;;3.20;30.60;;;;;;5023562;28;20181;-82
2023/02/08 08:01:35;;;;;;;29.70;17.93;;;3.10;32.40;;;;;;5014898;28;20190;-84
2023/02/08 08:04:00;;;;;;;22.13;14.97;;;3.20;34.20;;;;;;5025052;28;20657;-85
2023/02/08 08:06:27;;;;;;;20.20;14.67;;;3.20;31.80;;;;;;5017150;28;20217;-83
2023/02/08 08:08:53;;;;;;;21.17;15.07;;;3.40;29.20;;;;;;5049946;28;20185;-85
2023/02/08 08:11:22;;;;;;;22.20;13.53;;;3.40;26.80;;;;;;5045940;28;20176;-85
2023/02/08 08:13:51;;;;;;;23.37;13.10;;;3.60;25.00;;;;;;5042215;28;20185;-85
2023/02/08 08:16:21;;;;;;;22.37;14.67;;;3.70;22.20;;;;;;5033814;28;20646;-85
2023/02/08 08:18:47;;;;;;;18.10;12.70;;;3.80;17.00;;;;;;5032879;28;20654;-86
2023/02/08 08:21:15;;;;;;;15.90;11.67;;;3.90;11.20;;;;;;5024283;28;20180;-88
2023/02/08 08:23:41;;;;;;;21.23;12.33;;;3.90;1.00;;;;;;5034229;28;20637;-87
2023/02/08 08:26:15;;;;;;;20.93;13.47;;;4.10;1.00;;;;;;5029526;28;20278;-86
2023/02/08 08:28:42;;;;;;;20.67;13.40;;;4.10;1.00;;;;;;5021247;28;20185;-85
2023/02/08 08:31:13;;;;;;;22.43;13.93;;;4.20;1.00;;;;;;5045946;28;20201;-85
2023/02/08 08:33:39;;;;;;;22.20;14.03;;;4.40;1.00;;;;;;5037001;28;20185;-87
2023/02/08 08:36:05;;;;;;;19.40;12.13;;;4.40;1.00;;;;;;5031629;28;20177;-86
2023/02/08 08:38:30;;;;;;;24.43;13.97;;;4.50;1.00;;;;;;5015972;28;20178;-87
2023/02/08 08:40:56;;;;;;;21.30;14.27;;;4.60;1.00;;;;;;5019368;28;20268;-85
2023/02/08 08:43:22;;;;;;;21.60;13.70;;;4.70;1.00;;;;;;5037115;28;20292;-84
2023/02/08 08:45:47;;;;;;;21.20;12.80;;;4.80;1.00;;;;;;5042184;28;20185;-85
2023/02/08 08:48:13;;;;;;;19.83;14.20;;;5.00;1.00;;;;;;5060347;28;20552;-84
2023/02/08 08:50:39;;;;;;;22.80;15.10;;;5.00;1.00;;;;;;5038566;28;20185;-86
2023/02/08 08:53:05;;;;;;;21.50;14.17;;;5.00;1.00;;;;;;5035210;28;20549;-84
2023/02/08 08:55:30;;;;;;;24.90;14.30;;;5.10;1.00;;;;;;5038778;28;20181;-85
2023/02/08 08:57:56;;;;;;;21.43;14.73;;;5.10;1.00;;;;;;5036183;28;20221;-85
2023/02/08 09:00:22;;;;;;;18.83;13.37;;;5.20;1.00;;;;;;5046883;28;20193;-85
2023/02/08 09:02:51;;;;;;;23.43;12.93;;;5.20;1.00;;;;;;5049354;28;20205;-88
2023/02/08 09:05:17;;;;;;;19.07;11.73;;;5.30;1.00;;;;;;5030169;28;20178;-89
2023/02/08 09:07:45;;;;;;;21.10;11.87;;;5.50;1.00;;;;;;5041182;28;20216;-86
2023/02/08 09:10:11;;;;;;;25.47;11.67;;;5.60;1.00;;;;;;5027450;28;20595;-85
2023/02/08 09:12:37;;;;;;;21.80;11.73;;;5.60;1.00;;;;;;5020138;28;20210;-85
2023/02/08 09:15:11;;;;;;;19.90;10.37;;;5.60;1.00;;;;;;5033336;28;20171;-85
2023/02/08 09:17:37;;;;;;;16.03;10.70;;;5.80;1.00;;;;;;5034902;28;20173;-89
2023/02/08 09:20:04;;;;;;;17.23;10.80;;;5.80;1.00;;;;;;5053296;28;20174;-87
2023/02/08 09:22:30;;;;;;;12.00;9.07;;;5.90;1.00;;;;;;5050184;28;20173;-90
2023/02/08 09:24:56;;;;;;;16.70;9.97;;;5.90;1.00;;;;;;5033703;28;20197;-88
2023/02/08 09:27:23;;;;;;;11.37;8.33;;;5.80;99.90;;;;;;5047013;28;20229;-83
2023/02/08 09:29:49;;;;;;;13.17;9.60;;;6.00;99.90;;;;;;5033616;28;20210;-87
2023/02/08 09:32:15;;;;;;;8.80;7.13;;;6.10;99.90;;;;;;5054009;28;20231;-84
2023/02/08 09:34:50;;;;;;;15.27;9.67;;;6.40;99.90;;;;;;5049990;28;20259;-85
2023/02/08 09:37:20;;;;;;;18.97;9.83;;;6.40;99.90;;;;;;5054437;28;20204;-86
2023/02/08 09:40:00;;;;;;;12.93;9.93;;;6.60;99.90;;;;;;5022801;28;20169;-87
2023/02/08 09:43:03;;;;;;;20.80;10.87;;;6.70;99.90;;;;;;5038854;28;20198;-86
2023/02/08 09:45:57;;;;;;;15.27;10.50;;;6.80;99.90;;;;;;5043986;28;20241;-89
2023/02/08 09:48:38;;;;;;;15.93;8.30;;;6.90;99.90;;;;;;5035804;28;20351;-88
2023/02/08 09:51:16;;;;;;;16.00;7.63;;;6.90;1.00;;;;;;5054287;28;20174;-87
2023/02/08 09:53:49;;;;;;;10.23;7.07;;;6.90;1.00;;;;;;5022781;28;20196;-89
2023/02/08 09:56:39;;;;;;;11.43;6.63;;;7.00;99.90;;;;;;5033366;28;20248;-85
2023/02/08 09:59:05;;;;;;;12.33;6.93;;;7.20;99.90;;;;;;5022392;28;20169;-83
2023/02/08 10:01:34;;;;;;;10.07;6.40;;;7.30;99.90;;;;;;5026182;28;20198;-83
2023/02/08 10:04:27;;;;;;;13.23;6.40;;;7.30;99.90;;;;;;5014988;28;20596;-84
2023/02/08 10:06:53;;;;;;;14.27;6.93;;;7.00;99.90;;;;;;5013834;28;20171;-82
2023/02/08 10:09:24;;;;;;;10.93;6.07;;;7.50;99.90;;;;;;5029698;28;20189;-84
2023/02/08 10:12:19;;;;;;;15.30;6.87;;;7.50;1.00;;;;;;5043046;28;20230;-83
2023/02/08 10:15:01;;;;;;;14.43;6.40;;;7.70;99.90;;;;;;5052469;28;20174;-83
2023/02/08 10:17:36;;;;;;;24.23;9.50;;;7.70;1.00;;;;;;5056479;28;20190;-83
2023/02/08 10:20:16;;;;;;;12.67;6.80;;;7.70;1.00;;;;;;5046487;28;20212;-82
2023/02/08 10:23:22;;;;;;;13.60;6.50;;;7.40;1.00;;;;;;5038868;28;20182;-81
2023/02/08 10:26:10;;;;;;;8.77;5.90;;;7.20;1.00;;;;;;5052858;28;20193;-84
2023/02/08 10:29:09;;;;;;;12.83;6.03;;;6.90;1.00;;;;;;5037334;28;20186;-83
2023/02/08 10:32:23;;;;;;;9.43;5.70;;;7.20;93.20;;;;;;5028334;28;20167;-84
2023/02/08 10:34:58;;;;;;;9.17;5.33;;;7.20;1.00;;;;;;5018697;28;20249;-87
2023/02/08 10:37:43;;;;;;;7.07;5.53;;;7.30;99.90;;;;;;5018916;28;20253;-84
2023/02/08 10:40:19;;;;;;;8.23;5.63;;;7.20;99.90;;;;;;5020521;28;20618;-83
2023/02/08 10:43:01;;;;;;;7.47;4.57;;;7.30;1.00;;;;;;5022149;28;20165;-85
2023/02/08 10:45:44;;;;;;;6.47;4.10;;;7.30;1.00;;;;;;5017576;28;20200;-86
2023/02/08 10:48:17;;;;;;;5.87;4.40;;;7.40;1.00;;;;;;5017876;28;20194;-84
2023/02/08 10:50:46;;;;;;;6.77;4.60;;;7.70;99.90;;;;;;5017840;28;20170;-87
2023/02/08 10:53:16;;;;;;;7.07;4.50;;;7.60;99.90;;;;;;5021278;28;20305;-85
2023/02/08 10:55:44;;;;;;;10.20;4.87;;;7.60;99.90;;;;;;5019589;28;20174;-85
2023/02/08 10:58:18;;;;;;;6.67;4.70;;;7.60;33.70;;;;;;5020617;28;20638;-87
2023/02/08 11:00:45;;;;;;;7.17;3.70;;;7.80;28.70;;;;;;5019569;28;20189;-84
2023/02/08 11:03:28;;;;;;;5.33;3.30;;;7.60;1.00;;;;;;5023293;28;20175;-83
2023/02/08 11:05:54;;;;;;;6.27;3.67;;;7.70;1.00;;;;;;5031302;28;20170;-87
2023/02/08 11:08:26;;;;;;;7.10;3.93;;;7.90;1.00;;;;;;5017138;28;20166;-86
2023/02/08 11:11:10;;;;;;;6.17;3.07;;;8.10;1.00;;;;;;5018413;28;20158;-86
2023/02/08 11:13:42;;;;;;;5.73;3.23;;;7.90;1.00;;;;;;5034041;28;20584;-86
2023/02/08 11:16:26;;;;;;;6.07;3.70;;;7.80;1.00;;;;;;5016615;28;20166;-87
2023/02/08 11:18:55;;;;;;;8.20;4.13;;;8.00;1.00;;;;;;5036184;28;20241;-85
2023/02/08 11:21:36;;;;;;;8.60;3.67;;;8.20;1.00;;;;;;5027632;28;20174;-85
2023/02/08 11:24:13;;;;;;;10.83;3.90;;;8.40;1.00;;;;;;5018640;28;20208;-87
2023/02/08 11:26:40;;;;;;;7.77;4.07;;;8.70;1.00;;;;;;5019092;28;20273;-87
2023/02/08 11:29:22;;;;;;;5.37;3.90;;;8.90;1.00;;;;;;5017375;28;20171;-87
2023/02/08 11:31:53;;;;;;;5.50;2.63;;;9.00;99.90;;;;;;5019214;28;20530;-85
2023/02/08 11:34:29;;;;;;;5.07;3.00;;;9.20;99.90;;;;;;5030165;28;20209;-86
2023/02/08 11:36:56;;;;;;;7.17;3.10;;;9.30;99.90;;;;;;5042018;28;20244;-85
2023/02/08 11:39:26;;;;;;;4.97;3.13;;;9.40;99.90;;;;;;5041959;28;20174;-85
2023/02/08 11:41:57;;;;;;;6.27;2.93;;;9.10;99.90;;;;;;5040995;28;20177;-85
2023/02/08 11:44:28;;;;;;;5.00;3.10;;;9.10;99.90;;;;;;5037192;28;20268;-86
2023/02/08 11:46:58;;;;;;;5.50;3.50;;;8.90;99.90;;;;;;5038536;28;20544;-89
2023/02/08 11:49:34;;;;;;;4.77;3.27;;;8.80;99.90;;;;;;5043723;28;20170;-84
2023/02/08 11:52:00;;;;;;;6.23;3.50;;;8.50;99.90;;;;;;5021148;28;20296;-87
2023/02/08 11:54:32;;;;;;;6.70;3.70;;;8.40;99.90;;;;;;5030118;28;20217;-84
2023/02/08 11:57:03;;;;;;;5.60;3.40;;;8.60;99.90;;;;;;5028227;28;20679;-86
2023/02/08 11:59:29;;;;;;;5.80;3.23;;;8.70;99.90;;;;;;5028193;28;20185;-83
2023/02/08 12:01:56;;;;;;;5.27;3.10;;;8.90;99.90;;;;;;5043999;28;20250;-88
2023/02/08 12:04:21;;;;;;;7.73;3.40;;;9.30;99.90;;;;;;5038896;28;20245;-84
2023/02/08 12:07:16;;;;;;;7.47;4.10;;;9.50;99.90;;;;;;5039181;28;20182;-86
2023/02/08 12:09:59;;;;;;;7.23;3.47;;;9.70;99.90;;;;;;5050434;28;20177;-86
2023/02/08 12:12:32;;;;;;;5.00;2.90;;;9.90;99.90;;;;;;5034177;28;20224;-83
2023/02/08 12:15:11;;;;;;;6.27;3.43;;;10.00;99.90;;;;;;5033168;28;20165;-87
2023/02/08 12:17:54;;;;;;;4.13;3.03;;;10.10;99.90;;;;;;5046777;28;20167;-84
2023/02/08 12:20:46;;;;;;;4.33;2.93;;;10.30;98.20;;;;;;5042127;28;20201;-84
2023/02/08 12:23:26;;;;;;;5.10;2.67;;;10.40;90.40;;;;;;5037949;28;20178;-86
2023/02/08 12:26:12;;;;;;;6.00;2.97;;;10.40;78.10;;;;;;5042760;28;20173;-87
2023/02/08 12:29:09;;;;;;;6.80;3.63;;;10.30;66.50;;;;;;5033104;28;20209;-86
2023/02/08 12:31:53;;;;;;;4.17;2.97;;;10.40;58.50;;;;;;5000177;28;20234;-86
2023/02/08 12:34:27;;;;;;;5.87;3.10;;;10.60;51.50;;;;;;5025531;28;20185;-85
2023/02/08 12:40:49;;;;;;;5.40;3.03;;;11.00;48.40;;;;;;5041394;28;20240;-85
2023/02/08 12:43:38;;;;;;;5.17;3.10;;;10.90;40.60;;;;;;5038998;28;20189;-82
2023/02/08 12:46:37;;;;;;;6.90;3.10;;;10.40;30.00;;;;;;5036968;28;20165;-85
2023/02/08 12:49:41;;;;;;;6.20;3.00;;;10.20;26.40;;;;;;5003195;28;20213;-85
2023/02/08 12:52:35;;;;;;;5.60;3.93;;;10.50;30.10;;;;;;5034636;28;20220;-85
2023/02/08 12:55:20;;;;;;;6.50;3.60;;;10.60;33.80;;;;;;5023470;28;20167;-85
2023/02/08 12:57:52;;;;;;;5.63;3.67;;;10.80;37.70;;;;;;5025111;28;20162;-83
2023/02/08 13:00:19;;;;;;;5.53;3.10;;;10.70;32.60;;;;;;5028055;28;20174;-87
2023/02/08 13:02:56;;;;;;;6.23;3.27;;;10.80;33.00;;;;;;5025565;28;20182;-84
2023/02/08 13:05:26;;;;;;;5.97;3.67;;;10.80;32.50;;;;;;5026978;28;20257;-83
2023/02/08 13:08:31;;;;;;;6.17;3.33;;;10.70;28.50;;;;;;5040266;28;20231;-87
2023/02/08 13:11:05;;;;;;;4.67;3.00;;;10.40;24.30;;;;;;5038883;28;20633;-85
2023/02/08 13:13:38;;;;;;;5.63;3.10;;;10.10;18.60;;;;;;5021709;28;20686;-87
2023/02/08 13:16:14;;;;;;;6.00;3.37;;;9.70;16.70;;;;;;5043626;28;20173;-84
2023/02/08 13:19:01;;;;;;;5.87;3.90;;;9.70;18.60;;;;;;5034391;28;20189;-87